Map

Track Data

SID SEASON NUMBER BASIN SUBBASIN NAME ISO_TIME NATURE LAT LON WMO_WIND WMO_PRES WMO_AGENCY TRACK_TYPE DIST2LAND LANDFALL IFLAG USA_AGENCY USA_ATCF_ID USA_LAT USA_LON USA_RECORD USA_STATUS USA_WIND USA_PRES USA_SSHS USA_R34_NE USA_R34_SE USA_R34_SW USA_R34_NW USA_R50_NE USA_R50_SE USA_R50_SW USA_R50_NW USA_R64_NE USA_R64_SE USA_R64_SW USA_R64_NW USA_POCI USA_ROCI USA_RMW USA_EYE TOKYO_LAT TOKYO_LON TOKYO_GRADE TOKYO_WIND TOKYO_PRES TOKYO_R50_DIR TOKYO_R50_LONG TOKYO_R50_SHORT TOKYO_R30_DIR TOKYO_R30_LONG TOKYO_R30_SHORT TOKYO_LAND CMA_LAT CMA_LON CMA_CAT CMA_WIND CMA_PRES HKO_LAT HKO_LON HKO_CAT HKO_WIND HKO_PRES NEWDELHI_LAT NEWDELHI_LON NEWDELHI_GRADE NEWDELHI_WIND NEWDELHI_PRES NEWDELHI_CI NEWDELHI_DP NEWDELHI_POCI REUNION_LAT REUNION_LON REUNION_TYPE REUNION_WIND REUNION_PRES REUNION_TNUM REUNION_CI REUNION_RMW REUNION_R34_NE REUNION_R34_SE REUNION_R34_SW REUNION_R34_NW REUNION_R50_NE REUNION_R50_SE REUNION_R50_SW REUNION_R50_NW REUNION_R64_NE REUNION_R64_SE REUNION_R64_SW REUNION_R64_NW BOM_LAT BOM_LON BOM_TYPE BOM_WIND BOM_PRES BOM_TNUM BOM_CI BOM_RMW BOM_R34_NE BOM_R34_SE BOM_R34_SW BOM_R34_NW BOM_R50_NE BOM_R50_SE BOM_R50_SW BOM_R50_NW BOM_R64_NE BOM_R64_SE BOM_R64_SW BOM_R64_NW BOM_ROCI BOM_POCI BOM_EYE BOM_POS_METHOD BOM_PRES_METHOD NADI_LAT NADI_LON NADI_CAT NADI_WIND NADI_PRES WELLINGTON_LAT WELLINGTON_LON WELLINGTON_WIND WELLINGTON_PRES DS824_LAT DS824_LON DS824_STAGE DS824_WIND DS824_PRES TD9636_LAT TD9636_LON TD9636_STAGE TD9636_WIND TD9636_PRES TD9635_LAT TD9635_LON TD9635_WIND TD9635_PRES TD9635_ROCI NEUMANN_LAT NEUMANN_LON NEUMANN_CLASS NEUMANN_WIND NEUMANN_PRES MLC_LAT MLC_LON MLC_CLASS MLC_WIND MLC_PRES USA_GUST BOM_GUST BOM_GUST_PER REUNION_GUST REUNION_GUST_PER USA_SEAHGT USA_SEARAD_NE USA_SEARAD_SE USA_SEARAD_SW USA_SEARAD_NW STORM_SPEED STORM_DIR
1946055S10169 1946 15 SP MM NOT_NAMED 1946-02-24 00:00:00 TS -9.80000 169.000 main 607 568 O________OO___ jtwc_sh SH131946 -9.80000 169.000 -1 -9.80000 169.000 TC -9.80000 169.000 2 14 262
1946055S10169 1946 15 SP MM NOT_NAMED 1946-02-24 03:00:00 TS -9.90322 168.290 main 568 539 P________PP___ SH131946 -9.89785 168.278 -1 -9.89785 168.278 TC -9.91397 168.315 2 14 261
1946055S10169 1946 15 SP MM NOT_NAMED 1946-02-24 06:00:00 TS -10.0072 167.618 main 537 516 O________OP___ jtwc_sh SH131946 -10.0000 167.600 -1 -10.0000 167.600 TC -10.0217 167.653 2 13 261
1946055S10169 1946 15 SP MM NOT_NAMED 1946-02-24 09:00:00 TS -10.1111 167.017 main 516 463 P________PP___ SH131946 -10.1074 167.005 -1 -10.1074 167.005 TC -10.1186 167.040 2 11 260
1946055S10169 1946 15 SP MM NOT_NAMED 1946-02-24 12:00:00 TS -10.2000 166.500 main 463 418 O________OO___ jtwc_sh SH131946 -10.2000 166.500 -1 -10.2000 166.500 TC -10.2000 166.500 2 9 261
1946055S10169 1946 15 SP MM NOT_NAMED 1946-02-24 15:00:00 TS -10.2549 166.072 main 418 374 P________PP___ SH131946 -10.2498 166.085 -1 -10.2498 166.085 TC -10.2650 166.046 2 8 262
1946055S10169 1946 15 SP MM NOT_NAMED 1946-02-24 18:00:00 TS -10.3088 165.681 main 374 329 O________OP___ jtwc_sh SH131946 -10.3000 165.700 -1 -10.3000 165.700 TC -10.3263 165.642 2 8 260
1946055S10169 1946 15 SP MM NOT_NAMED 1946-02-24 21:00:00 TS -10.3897 165.267 main 329 274 P________PP___ SH131946 -10.3849 165.280 -1 -10.3849 165.280 TC -10.3994 165.242 2 9 258
1946055S10169 1946 15 SP MM NOT_NAMED 1946-02-25 00:00:00 TS -10.5000 164.800 main 274 219 O________OO___ jtwc_sh SH131946 -10.5000 164.800 -1 -10.5000 164.800 TC -10.5000 164.800 2 11 256
1946055S10169 1946 15 SP MM NOT_NAMED 1946-02-25 03:00:00 TS -10.6416 164.225 main 208 142 P________PP___ SH131946 -10.6350 164.222 -1 -10.6350 164.222 TC -10.6547 164.230 2 12 255
1946055S10169 1946 15 SP MM NOT_NAMED 1946-02-25 06:00:00 TS -10.8118 163.605 main 142 79 O________OP___ jtwc_sh SH131946 -10.8000 163.600 -1 -10.8000 163.600 TC -10.8355 163.615 2 13 253
1946055S10169 1946 15 SP MM NOT_NAMED 1946-02-25 09:00:00 TS -11.0128 162.983 main 79 46 P________PP___ SH131946 -11.0075 162.978 -1 -11.0075 162.978 TC -11.0235 162.993 2 12 252
1946055S10169 1946 15 SP MM NOT_NAMED 1946-02-25 12:00:00 TS -11.2000 162.400 main 46 44 O________OO___ jtwc_sh SH131946 -11.2000 162.400 -1 -11.2000 162.400 TC -11.2000 162.400 2 11 254
1946055S10169 1946 15 SP MM NOT_NAMED 1946-02-25 15:00:00 TS -11.3150 161.923 main 56 56 P________PP___ SH131946 -11.3073 161.935 -1 -11.3073 161.935 TC -11.3306 161.901 2 9 257
1946055S10169 1946 15 SP MM NOT_NAMED 1946-02-25 18:00:00 TS -11.4164 161.478 main 74 74 O________OP___ jtwc_sh SH131946 -11.4000 161.500 -1 -11.4000 161.500 TC -11.4491 161.434 2 9 256
1946055S10169 1946 15 SP MM NOT_NAMED 1946-02-25 21:00:00 TS -11.5460 161.002 main 114 114 P________PP___ SH131946 -11.5349 161.015 -1 -11.5349 161.015 TC -11.5681 160.976 2 10 254
1946055S10169 1946 15 SP MM NOT_NAMED 1946-02-26 00:00:00 TS -11.7000 160.500 main 164 164 O________OO___ jtwc_sh SH131946 -11.7000 160.500 -1 -11.7000 160.500 TC -11.7000 160.500 2 11 251
1946055S10169 1946 15 SP EA NOT_NAMED 1946-02-26 03:00:00 TS -11.8895 159.960 main 219 219 P________PP___ SH131946 -11.8999 159.958 -1 -11.8999 159.958 TC -11.8687 159.964 2 11 250
1946055S10169 1946 15 SP EA NOT_NAMED 1946-02-26 06:00:00 TS -12.0833 159.403 main 261 261 O________OP___ jtwc_sh SH131946 -12.1000 159.400 -1 -12.1000 159.400 TC -12.0500 159.408 2 12 252
1946055S10169 1946 15 SP EA NOT_NAMED 1946-02-26 09:00:00 TS -12.2537 158.844 main 300 300 P________PP___ SH131946 -12.2649 158.842 -1 -12.2649 158.842 TC -12.2312 158.848 2 11 254
1946055S10169 1946 15 SP EA NOT_NAMED 1946-02-26 12:00:00 TS -12.4000 158.300 main 334 334 O________OO___ jtwc_sh SH131946 -12.4000 158.300 -1 -12.4000 158.300 TC -12.4000 158.300 2 11 256
1946055S10169 1946 15 SP EA NOT_NAMED 1946-02-26 15:00:00 TS -12.5115 157.790 main 372 372 P________PP___ SH131946 -12.4999 157.792 -1 -12.4999 157.792 TC -12.5349 157.785 2 10 257
1946055S10169 1946 15 SP EA NOT_NAMED 1946-02-26 18:00:00 TS -12.6190 157.295 main 415 415 O________OP___ jtwc_sh SH131946 -12.6000 157.300 -1 -12.6000 157.300 TC -12.6569 157.285 2 10 256
1946055S10169 1946 15 SP EA NOT_NAMED 1946-02-26 21:00:00 TS -12.7535 156.797 main 469 469 P________PP___ SH131946 -12.7424 156.800 -1 -12.7424 156.800 TC -12.7755 156.792 2 10 254
1946055S10169 1946 15 SP EA NOT_NAMED 1946-02-27 00:00:00 TS -12.9000 156.300 main 508 508 O________OO___ jtwc_sh SH131946 -12.9000 156.300 -1 -12.9000 156.300 TC -12.9000 156.300 2 10 253
1946055S10169 1946 15 SP EA NOT_NAMED 1946-02-27 03:00:00 TS -13.0488 155.797 main 539 539 P________PP___ SH131946 -13.0499 155.800 -1 -13.0499 155.800 TC -13.0467 155.792 2 10 253
1946055S10169 1946 15 SP EA NOT_NAMED 1946-02-27 06:00:00 TS -13.1999 155.295 main 579 539 O________OP___ jtwc_sh SH131946 -13.2000 155.300 -1 -13.2000 155.300 TC -13.1998 155.285 2 10 253
1946055S10169 1946 15 SP EA NOT_NAMED 1946-02-27 09:00:00 TS -13.3510 154.790 main 545 508 P________PP___ SH131946 -13.3499 154.792 -1 -13.3499 154.792 TC -13.3530 154.786 2 10 253
1946055S10169 1946 15 SP EA NOT_NAMED 1946-02-27 12:00:00 TS -13.5000 154.300 main 508 483 O________OO___ jtwc_sh SH131946 -13.5000 154.300 -1 -13.5000 154.300 TC -13.5000 154.300 2 10 252
1946055S10169 1946 15 SP EA NOT_NAMED 1946-02-27 15:00:00 TS -13.6503 153.839 main 483 461 P________PP___ SH131946 -13.6574 153.842 -1 -13.6574 153.842 TC -13.6362 153.833 2 9 252
1946055S10169 1946 15 SP EA NOT_NAMED 1946-02-27 18:00:00 TS -13.7877 153.393 main 463 443 O________OP___ jtwc_sh SH131946 -13.8000 153.400 -1 -13.8000 153.400 TC -13.7630 153.380 2 9 254
1946055S10169 1946 15 SP EA NOT_NAMED 1946-02-27 21:00:00 TS -13.9012 152.948 main 440 434 P________PP___ SH131946 -13.8399 152.950 -1 -13.9102 152.953 TC -13.8833 152.938 2 9 250
1946055S10169 1946 15 SP EA NOT_NAMED 1946-02-27 23:00:00 TS -14.0384 152.674 999 bom main 438 443 P_____O__PP___ SH131946 -13.9179 152.650 -1 -14.1000 152.800 999 -13.9711 152.651 TC -13.9613 152.646 2 10 226
1946055S10169 1946 15 SP EA NOT_NAMED 1946-02-28 00:00:00 TS -14.2600 152.561 main 462 458 O_____P__OO___ jtwc_sh SH131946 -14.0000 152.500 -1 -14.1996 152.592 -14.0000 152.500 TC -14.0000 152.500 2 13 221
1946055S10169 1946 15 SP EA NOT_NAMED 1946-02-28 03:00:00 TS -14.7085 152.070 main 483 480 P_____P_______ SH131946 -14.5199 152.058 -1 -14.4964 151.971 TC 2 12 232
1946055S10169 1946 15 SP EA NOT_NAMED 1946-02-28 06:00:00 TS -15.0114 151.556 main 498 496 O_____P_______ jtwc_sh SH151946 -15.1000 151.600 -1 -14.7878 151.356 2 12 238
1946055S10169 1946 15 SP EA NOT_NAMED 1946-02-28 09:00:00 TS -15.3216 151.049 main 519 519 P_____P_______ SH151946 -15.4447 151.137 -1 -15.0709 150.753 2 12 239
1946055S10169 1946 15 SP EA NOT_NAMED 1946-02-28 11:00:00 TS -15.5161 150.685 main 534 510 P_____P_______ SH151946 -15.6186 150.792 -1 -15.2536 150.362 2 12 242
1946055S10169 1946 15 SP EA NOT_NAMED 1946-02-28 12:00:00 TS -15.6104 150.491 main 510 438 O_____P_______ jtwc_sh SH151946 -15.7000 150.600 -1 -15.3428 150.170 13 246
1946055S10169 1946 15 SP EA NOT_NAMED 1946-02-28 15:00:00 TS -15.8799 149.836 main 428 360 P_____P_______ SH151946 -15.9653 149.900 -1 -15.6007 149.612 14 248
1946055S10169 1946 15 SP EA NOT_NAMED 1946-02-28 18:00:00 TS -16.1239 149.187 main 360 302 O_____P_______ jtwc_sh SH151946 -16.2000 149.200 -1 -15.8419 149.087 13 248
1946055S10169 1946 15 SP EA NOT_NAMED 1946-02-28 21:00:00 TS -16.3470 148.628 main 293 254 P_____P_______ SH151946 -16.4223 148.632 -1 -16.0639 148.600 11 247
1946055S10169 1946 15 SP EA NOT_NAMED 1946-02-28 23:00:00 TS -16.4737 148.314 997 bom main 254 245 P_____O_______ SH151946 -16.5473 148.328 -1 -16.2000 148.300 997 9 247
1946055S10169 1946 15 SP EA NOT_NAMED 1946-03-01 00:00:00 TS -16.5274 148.181 main 245 206 O_____P_______ jtwc_sh SH151946 -16.6000 148.200 -1 -16.2642 148.158 7 247
1946055S10169 1946 15 SP EA NOT_NAMED 1946-03-01 03:00:00 TS -16.6576 147.859 main 206 177 P_____P_______ SH151946 -16.7223 147.912 -1 -16.4429 147.765 6 248
1946055S10169 1946 15 SP EA NOT_NAMED 1946-03-01 06:00:00 TS -16.7521 147.608 main 173 153 O_____P_______ jtwc_sh SH151946 -16.8000 147.700 -1 -16.6042 147.417 5 251
1946055S10169 1946 15 SP EA NOT_NAMED 1946-03-01 09:00:00 TS -16.8234 147.360 main 153 129 P_____P_______ SH151946 -16.8425 147.450 -1 -16.7524 147.113 5 253
1946055S10169 1946 15 SP EA NOT_NAMED 1946-03-01 11:00:00 TS -16.8738 147.200 main 129 120 P_____P_______ SH151946 -16.8745 147.283 -1 -16.8462 146.934 5 250
1946055S10169 1946 15 SP EA NOT_NAMED 1946-03-01 12:00:00 TS -16.9065 147.114 main 120 96 O_____P_______ jtwc_sh SH151946 -16.9000 147.200 -1 -16.8921 146.851 5 243
1946055S10169 1946 15 SP EA NOT_NAMED 1946-03-01 15:00:00 TS -17.0395 146.863 main 96 57 P_____P_______ SH151946 -17.0425 146.950 -1 -17.0274 146.627 5 239
1946055S10169 1946 15 SP EA NOT_NAMED 1946-03-01 18:00:00 TS -17.1834 146.623 main 57 33 O_____P_______ jtwc_sh SH151946 -17.2000 146.700 -1 -17.1628 146.439 5 240
1946055S10169 1946 15 SP EA NOT_NAMED 1946-03-01 21:00:00 TS -17.3021 146.387 main 33 21 P_____P_______ SH151946 -17.3000 146.420 -1 -17.3024 146.285 5 241
1946055S10169 1946 15 SP EA NOT_NAMED 1946-03-01 23:00:00 TS -17.3818 146.255 982 bom main 21 10 P_____O_______ SH151946 -17.3636 146.260 -1 -17.4000 146.200 982 4 4 234
1946055S10169 1946 15 SP EA NOT_NAMED 1946-03-02 00:00:00 TS -17.4294 146.200 main 10 0 O_____P_______ jtwc_sh SH151946 -17.4000 146.200 -1 -17.4548 146.148 4 218
1946055S10169 1946 15 SP EA NOT_NAMED 1946-03-02 03:00:00 TS -17.5759 146.092 main 0 0 P_____P_______ SH151946 -17.5349 146.112 -1 -17.6211 146.019 3 207
1946055S10169 1946 15 SP EA NOT_NAMED 1946-03-02 06:00:00 TS -17.7336 146.036 main 0 0 O_____P_______ jtwc_sh SH151946 -17.7000 146.100 -1 -17.7870 145.934 3 194
1946055S10169 1946 15 SP EA NOT_NAMED 1946-03-02 09:00:00 TS -17.9022 146.005 main 0 0 P_____P_______ SH151946 -17.9000 146.100 -1 -17.9481 145.900 3 192
1946055S10169 1946 15 SP EA NOT_NAMED 1946-03-02 10:00:00 TS -17.9594 146.003 bom main 0 0 P_____O_______ SH151946 -17.9691 146.102 -1 -18.0000 145.900 3 0
1946055S10169 1946 15 SP EA NOT_NAMED 1946-03-02 11:00:00 TS -18.0144 146.000 main 0 0 P_____P_______ SH151946 -18.0364 146.103 -1 -18.0434 145.887 3 0
1946055S10169 1946 15 SP EA NOT_NAMED 1946-03-02 12:00:00 TS -18.0651 145.992 main 0 0 O_____P_______ jtwc_sh SH151946 -18.1000 146.100 -1 -18.0848 145.879 3 189
1946055S10169 1946 15 SP EA NOT_NAMED 1946-03-02 15:00:00 TS -18.2018 145.963 main 0 0 P_____P_______ SH151946 -18.2500 146.043 -1 -18.2036 145.889 3 0
1946055S10169 1946 15 SP EA NOT_NAMED 1946-03-02 18:00:00 TS -18.3483 145.977 main 0 0 O_____P_______ jtwc_sh SH151946 -18.4000 146.000 -1 -18.3286 145.965 3 164
1946055S10169 1946 15 SP EA NOT_NAMED 1946-03-02 21:00:00 TS -18.5179 146.053 main 0 0 P_____P_______ SH151946 -18.5548 145.975 -1 -18.4780 146.130 4 150
1946055S10169 1946 15 SP EA NOT_NAMED 1946-03-02 23:00:00 TS -18.6657 146.171 998 bom main 0 0 P_____O_______ SH151946 -18.7020 146.033 -1 -18.6000 146.300 998 6 141
1946055S10169 1946 15 SP EA NOT_NAMED 1946-03-03 00:00:00 TS -18.7615 146.262 main 0 0 O_____P_______ jtwc_sh SH151946 -18.8000 146.100 -1 -18.6837 146.425 10 135
1946055S10169 1946 15 SP EA NOT_NAMED 1946-03-03 03:00:00 TS -19.1317 146.666 main 11 0 P_____P_______ SH151946 -19.2124 146.460 -1 -18.9746 146.902 12 131
1946055S10169 1946 15 SP EA NOT_NAMED 1946-03-03 06:00:00 TS -19.5577 147.216 main 0 0 O_____P_______ jtwc_sh SH151946 -19.7000 147.000 -1 -19.3122 147.504 14 128
1946055S10169 1946 15 SP EA NOT_NAMED 1946-03-03 09:00:00 TS -19.9879 147.836 main 0 0 P_____P_______ SH151946 -20.1795 147.575 -1 -19.6792 148.194 15 125
1946055S10169 1946 15 SP EA NOT_NAMED 1946-03-03 11:00:00 TS -20.2590 148.302 main 0 0 P_____P_______ SH151946 -20.4725 148.039 -1 -19.9319 148.683 16 120
1946055S10169 1946 15 SP EA NOT_NAMED 1946-03-03 12:00:00 TS -20.3815 148.554 main 0 0 O_____P_______ jtwc_sh SH151946 -20.6000 148.300 -1 -20.0587 148.931 17 113
1946055S10169 1946 15 SP EA NOT_NAMED 1946-03-03 15:00:00 TS -20.7027 149.397 main 49 45 P_____P_______ SH151946 -20.8959 149.258 -1 -20.4344 149.678 17 111
1946055S10169 1946 15 SP EA NOT_NAMED 1946-03-03 18:00:00 TS -20.9675 150.229 main 103 103 O_____P_______ jtwc_sh SH151946 -21.1000 150.200 -1 -20.7905 150.392 15 109
1946055S10169 1946 15 SP EA NOT_NAMED 1946-03-03 21:00:00 TS -21.1946 150.926 main 135 127 P_____P_______ SH151946 -21.2646 150.920 -1 -21.1120 151.033 13 110
1946055S10169 1946 15 SP EA NOT_NAMED 1946-03-03 23:00:00 TS -21.3253 151.295 1002 bom main 137 133 P_____O_______ SH151946 -21.3551 151.270 -1 -21.3000 151.400 1002 7 322
1946055S10169 1946 15 SP EA NOT_NAMED 1946-03-04 00:00:00 TS -20.9302 150.710 main 155 132 O_____P_______ jtwc_sh SH151946 -21.4000 151.400 -1 -21.3686 151.520 13 306
1946055S10169 1946 15 SP EA NOT_NAMED 1946-03-04 03:00:00 TS -20.8114 150.534 main 139 139 P_____P_______ SH151946 -21.5571 151.625 -1 -21.5480 151.816 3 301
1946055S10169 1946 15 SP EA NOT_NAMED 1946-03-04 06:00:00 TS -20.7881 150.458 main 139 129 O_____P_______ jtwc_sh SH151946 -21.7000 151.700 -1 -21.6931 152.030 0 0
1946055S10169 1946 15 SP EA NOT_NAMED 1946-03-04 09:00:00 TS -20.8236 150.506 main 139 136 P_____P_______ SH151946 -21.8075 151.808 -1 -21.8110 152.177 4 126
1946055S10169 1946 15 SP EA NOT_NAMED 1946-03-04 11:00:00 TS -20.9663 150.719 main 150 150 P_____P_______ SH151946 -21.8693 151.869 -1 -21.8778 152.245 7 126
1946055S10169 1946 15 SP EA NOT_NAMED 1946-03-04 12:00:00 TS -21.0384 150.829 main 156 133 O_____P_______ jtwc_sh SH151946 -21.9000 151.900 -1 -21.9085 152.271 8 126
1946055S10169 1946 15 SP EA NOT_NAMED 1946-03-04 15:00:00 TS -21.2676 151.169 main 133 123 P_____P_______ SH151946 -22.0000 152.000 -1 -21.9924 152.326 8 126
1946055S10169 1946 15 SP EA NOT_NAMED 1946-03-04 18:00:00 TS -21.4844 151.481 main 130 128 O_____P_______ jtwc_sh SH151946 -22.1000 152.100 -1 -22.0693 152.358 7 127
1946055S10169 1946 15 SP EA NOT_NAMED 1946-03-04 21:00:00 TS -21.6712 151.747 main 128 128 P_____P_______ SH151946 -22.1925 152.193 -1 -22.1459 152.382 6 128
1946055S10169 1946 15 SP EA NOT_NAMED 1946-03-04 23:00:00 TS -21.7816 151.893 1000 bom main 137 137 P_____O_______ SH151946 -22.2609 152.261 -1 -22.2000 152.400 1000 5 129
1946055S10169 1946 15 SP EA NOT_NAMED 1946-03-05 00:00:00 TS -21.8338 151.958 main 146 140 O_____P_______ jtwc_sh SH151946 -22.3000 152.300 -1 -22.2296 152.417 4 135
1946055S10169 1946 15 SP EA NOT_NAMED 1946-03-05 03:00:00 TS -21.9800 152.110 main 144 144 P_____P_______ SH151946 -22.4500 152.442 -1 -22.3148 152.457 4 138
1946055S10169 1946 15 SP EA NOT_NAMED 1946-03-05 06:00:00 TS -22.1028 152.217 main 150 150 O_____P_______ jtwc_sh SH151946 -22.6000 152.600 -1 -22.3986 152.485 3 140
1946055S10169 1946 15 SP EA NOT_NAMED 1946-03-05 09:00:00 TS -22.2069 152.316 main 157 157 P_____P_______ SH151946 -22.7075 152.750 -1 -22.4864 152.515 3 138
1946055S10169 1946 15 SP EA NOT_NAMED 1946-03-05 11:00:00 TS -22.2704 152.379 main 165 165 P_____P_______ SH151946 -22.7693 152.850 -1 -22.5496 152.540 3 136
1946055S10169 1946 15 SP EA NOT_NAMED 1946-03-05 12:00:00 TS -22.3007 152.409 main 165 165 O_____P_______ jtwc_sh SH151946 -22.8000 152.900 -1 -22.5832 152.556 3 136
1946055S10169 1946 15 SP EA NOT_NAMED 1946-03-05 15:00:00 TS -22.3998 152.513 main 174 174 P_____P_______ SH151946 -22.9000 153.050 -1 -22.6944 152.622 3 135
1946055S10169 1946 15 SP EA NOT_NAMED 1946-03-05 18:00:00 TS -22.5027 152.626 main 184 184 O_____P_______ jtwc_sh SH151946 -23.0000 153.200 -1 -22.8250 152.722 3 134
1946055S10169 1946 15 SP EA NOT_NAMED 1946-03-05 21:00:00 TS -22.6106 152.747 main 191 186 P_____P_______ SH151946 -23.0849 153.320 -1 -22.9803 152.870 3 133
1946055S10169 1946 15 SP EA NOT_NAMED 1946-03-05 23:00:00 TS -22.6934 152.848 1002 bom main 186 192 P_____O_______ SH151946 -23.1552 153.427 -1 -23.1000 153.000 1002 4 131
1946055S10169 1946 15 SP EA NOT_NAMED 1946-03-06 00:00:00 TS -22.7410 152.908 main 192 183 O_____P_______ jtwc_sh SH151946 -23.2000 153.500 -1 -23.1713 153.071 5 129
1946055S10169 1946 15 SP EA NOT_NAMED 1946-03-06 03:00:00 TS -22.9022 153.130 main 188 188 P_____P_______ SH151946 -23.3700 153.813 -1 -23.4064 153.317 6 128
1946055S10169 1946 15 SP EA NOT_NAMED 1946-03-06 06:00:00 TS -23.0907 153.391 main 190 170 O_____P_______ jtwc_sh SH151946 -23.6000 154.200 -1 -23.6678 153.611 6 128
1946055S10169 1946 15 SP EA NOT_NAMED 1946-03-06 09:00:00 TS -23.3008 153.684 main 172 157 P_____P_______ SH151946 -23.8776 154.615 -1 -23.9483 153.955 7 129
1946055S10169 1946 15 SP EA NOT_NAMED 1946-03-06 11:00:00 TS -23.4516 153.872 main 157 157 P_____P_______ SH151946 -24.0891 154.881 -1 -24.1424 154.211 7 133
1946055S10169 1946 15 SP EA NOT_NAMED 1946-03-06 12:00:00 TS -23.5289 153.952 main 161 141 O_____P_______ jtwc_sh SH151946 -24.2000 155.000 -1 -24.2408 154.347 5 147
1946055S10169 1946 15 SP EA NOT_NAMED 1946-03-06 15:00:00 TS -23.7577 154.089 main 138 127 P_____P_______ SH151946 -24.5496 155.243 -1 -24.5381 154.788 5 149
1946055S10169 1946 15 SP EA NOT_NAMED 1946-03-06 18:00:00 TS -23.9955 154.261 main 135 127 O_____P_______ jtwc_sh SH151946 -24.9000 155.500 -1 -24.8331 155.277 6 137
1946055S10169 1946 15 SP EA NOT_NAMED 1946-03-06 21:00:00 TS -24.1973 154.538 main 138 138 P_____P_______ SH151946 -25.2073 155.890 -1 -25.1186 155.815 7 125
1946055S10169 1946 15 SP EA NOT_NAMED 1946-03-06 23:00:00 TS -24.3395 154.804 1000 bom main 161 156 P_____O_______ SH151946 -25.4025 156.217 -1 -25.3000 156.200 1000 9 119
1946055S10169 1946 15 SP EA NOT_NAMED 1946-03-07 00:00:00 TS -24.4060 154.949 main 165 165 O_____P_______ jtwc_sh SH151946 -25.5000 156.400 -1 -25.3873 156.401 13 118
1946055S10169 1946 15 SP EA NOT_NAMED 1946-03-07 03:00:00 TS -24.7455 155.647 main 224 224 P_____P_______ SH151946 -25.8075 157.013 -1 -25.6355 157.032 16 118
1946055S10169 1946 15 SP EA NOT_NAMED 1946-03-07 06:00:00 TS -25.1703 156.546 main 312 312 O_____P_______ jtwc_sh SH151946 -26.1000 157.700 -1 -25.8646 157.704 19 118
1946055S10169 1946 15 SP EA NOT_NAMED 1946-03-07 09:00:00 TS -25.6009 157.461 main 417 417 P_____P_______ SH151946 -26.3799 158.400 -1 -26.0765 158.411 19 117
1946055S10169 1946 15 SP EA NOT_NAMED 1946-03-07 11:00:00 TS -25.8697 158.078 main 482 482 P_____P_______ SH151946 -26.5363 158.870 -1 -26.2093 158.899 18 115
1946055S10169 1946 15 SP EA NOT_NAMED 1946-03-07 12:00:00 TS -25.9890 158.384 main 513 513 O_____P_______ jtwc_sh SH151946 -26.6000 159.100 -1 -26.2733 159.147 17 111
1946055S10169 1946 15 SP EA NOT_NAMED 1946-03-07 15:00:00 TS -26.2777 159.271 main 601 601 P_____P_______ SH151946 -26.7146 159.758 -1 -26.4570 159.906 16 109
1946055S10169 1946 15 SP MM NOT_NAMED 1946-03-07 18:00:00 TS -26.5114 160.120 main 668 668 O_____P_______ jtwc_sh SH151946 -26.8000 160.400 -1 -26.6299 160.683 16 107
1946055S10169 1946 15 SP MM NOT_NAMED 1946-03-07 21:00:00 TS -26.7613 161.011 main 721 704 P_____P_______ SH151946 -26.9127 161.095 -1 -26.7941 161.471 16 109
1946055S10169 1946 15 SP MM NOT_NAMED 1946-03-07 23:00:00 TS -26.9393 161.541 bom main 704 704 P_____O_______ SH151946 -27.0247 161.518 -1 -26.9000 162.000 14 115
1946055S10169 1946 15 SP MM NOT_NAMED 1946-03-08 00:00:00 TS -27.0563 161.731 main 713 704 O_____________ jtwc_sh SH151946 -27.1000 161.700 -1 10 133
1946055S10169 1946 15 SP MM NOT_NAMED 1946-03-08 03:00:00 TS -27.4074 162.113 main 715 709 P_____________ SH151946 -27.4121 162.125 -1 10 141
1946055S10169 1946 15 SP MM NOT_NAMED 1946-03-08 06:00:00 TS -27.7919 162.403 main 734 734 O_____________ jtwc_sh SH151946 -27.8000 162.400 -1 9 151
1946055S10169 1946 15 SP MM NOT_NAMED 1946-03-08 09:00:00 TS -28.1850 162.609 main 761 761 P_____________ SH151946 -28.1774 162.603 -1 9 160
1946055S10169 1946 15 SP MM NOT_NAMED 1946-03-08 11:00:00 TS -28.4684 162.685 main 785 785 P_____________ SH151946 -28.4526 162.678 -1 9 169
1946055S10169 1946 15 SP MM NOT_NAMED 1946-03-08 12:00:00 TS -28.6211 162.708 main 795 795 O_____________ jtwc_sh SH151946 -28.6000 162.700 -1 10 176
1946055S10169 1946 15 SP MM NOT_NAMED 1946-03-08 15:00:00 TS -29.1008 162.718 main 844 844 P_____________ SH151946 -29.0825 162.720 -1 10 183
1946055S10169 1946 15 SP MM NOT_NAMED 1946-03-08 18:00:00 TS -29.5971 162.660 main 884 868 O_____________ jtwc_sh SH151946 -29.6000 162.700 -1 10 191
1946055S10169 1946 15 SP MM NOT_NAMED 1946-03-08 21:00:00 NR -30.0772 162.501 main 870 862 ______________ SH151946 -1 10 196
1946055S10169 1946 15 SP MM NOT_NAMED 1946-03-08 23:00:00 NR -30.4000 162.400 main 865 ______________ SH151946 -1 10 196

Digital Typhoon Data and Search

About IBTrACS Database

This database is a web-friendly format of International Best Track Archive for Climate Stewardship (IBTrACS), a global best track data archive curated by NOAA dating back to 1842.

Updated: 2021-11-26